Time;durP1;ratioP1;P1;durP2;ratioP2;P2;SDS_P1;SDS_P2;PMS_P1;PMS_P2;Temp;Humidity;BMP_temperature;BMP_pressure;BME280_temperature;BME280_humidity;BME280_pressure;Samples;Min_cycle;Max_cycle;Signal;HPM_P1;HPM_P2
2022/06/21 00:04:58;;;;;;;2.42;0.93;;;;;;;18.14;79.24;101418.59;20870929;28;20049;-76
2022/06/21 00:15:00;;;;;;;2.95;0.93;;;;;;;18.17;79.19;101407.56;20865044;28;20493;-76
2022/06/21 00:25:04;;;;;;;1.45;0.98;;;;;;;18.16;78.96;101411.22;20883413;28;20549;-76
2022/06/21 00:35:11;;;;;;;1.27;0.60;;;;;;;18.15;78.74;101394.19;20878729;28;20045;-76
2022/06/21 00:45:23;;;;;;;1.50;0.82;;;;;;;18.16;78.46;101400.44;20879725;28;20052;-76
2022/06/21 00:55:56;;;;;;;1.65;0.90;;;;;;;18.14;78.34;101397.03;20790014;28;20057;-76
2022/06/21 01:06:00;;;;;;;1.15;0.70;;;;;;;18.14;77.99;101402.41;20794122;28;20414;-76
2022/06/21 01:16:03;;;;;;;1.05;0.70;;;;;;;18.13;77.74;101392.63;20798019;28;20433;-76
2022/06/21 01:26:07;;;;;;;1.58;0.63;;;;;;;18.12;77.41;101375.56;20797186;28;20493;-76
2022/06/21 01:36:13;;;;;;;0.60;0.60;;;;;;;18.10;77.17;101378.38;20799727;28;20445;-76
2022/06/21 01:46:18;;;;;;;1.00;0.63;;;;;;;18.09;76.78;101365.91;20797100;28;20041;-76
2022/06/21 01:56:23;;;;;;;0.80;0.63;;;;;;;18.10;76.43;101378.38;20808650;28;20041;-76
2022/06/21 02:06:26;;;;;;;1.13;0.60;;;;;;;18.10;76.23;101382.94;20886414;28;20456;-76
2022/06/21 02:16:28;;;;;;;1.33;0.70;;;;;;;18.08;75.88;101366.88;20917214;28;20106;-76
2022/06/21 02:26:33;;;;;;;1.63;0.60;;;;;;;18.07;75.48;101354.38;20967996;28;20087;-76
2022/06/21 02:36:43;;;;;;;2.20;0.60;;;;;;;18.07;75.21;101357.09;20966238;28;20037;-76
2022/06/21 02:47:17;;;;;;;0.50;0.45;;;;;;;18.06;75.07;101352.69;20920971;28;20523;-76
2022/06/21 02:57:18;;;;;;;0.82;0.50;;;;;;;18.06;74.59;101338.38;20823260;28;20042;-76
2022/06/21 03:07:23;;;;;;;1.60;0.80;;;;;;;17.95;74.10;101317.66;20898311;28;20041;-76
2022/06/21 03:17:36;;;;;;;0.77;0.57;;;;;;;17.83;73.66;101290.75;20825546;28;20129;-76
2022/06/21 03:28:24;;;;;;;1.85;0.60;;;;;;;18.03;73.42;101323.28;20798274;28;20494;-76
2022/06/21 03:38:25;;;;;;;0.95;0.50;;;;;;;17.98;73.07;101317.41;20807048;28;20060;-77
2022/06/21 03:48:36;;;;;;;0.60;0.60;;;;;;;18.03;72.90;101325.16;20805338;28;20045;-76
2022/06/21 03:58:57;;;;;;;1.13;0.50;;;;;;;18.01;72.33;101354.06;20811694;28;20497;-76
2022/06/21 04:09:03;;;;;;;1.13;0.65;;;;;;;17.78;72.11;101311.84;20880492;28;20053;-76
2022/06/21 04:19:05;;;;;;;2.10;0.60;;;;;;;18.00;72.05;101350.47;20864522;28;20503;-76
2022/06/21 04:29:24;;;;;;;0.68;0.60;;;;;;;18.00;71.79;101358.53;20785171;28;20107;-76
2022/06/21 04:39:50;;;;;;;0.65;0.40;;;;;;;18.00;71.66;101363.09;20824562;28;20050;-76
2022/06/21 04:49:58;;;;;;;1.55;0.95;;;;;;;18.01;71.80;101344.13;20844179;28;20075;-77
2022/06/21 05:00:06;;;;;;;0.85;0.40;;;;;;;18.01;72.10;101359.44;20836187;28;20497;-77
2022/06/21 05:10:14;;;;;;;1.02;0.70;;;;;;;17.88;72.98;101349.63;20870368;28;20053;-75
2022/06/21 05:20:19;;;;;;;4.82;0.80;;;;;;;17.96;74.52;101386.72;20851168;28;20041;-76
2022/06/21 05:30:34;;;;;;;1.73;0.80;;;;;;;18.04;75.90;101392.38;20872257;28;20053;-76
2022/06/21 05:40:47;;;;;;;3.83;0.80;;;;;;;18.04;76.72;101381.59;20839395;28;20060;-75
2022/06/21 05:50:50;;;;;;;2.22;0.73;;;;;;;18.05;76.94;101387.84;20783309;28;20099;-76
2022/06/21 06:01:01;;;;;;;3.13;0.75;;;;;;;18.04;77.18;101381.59;20773497;28;20060;-76
2022/06/21 06:11:07;;;;;;;3.50;0.85;;;;;;;18.05;77.39;101374.38;20792794;28;20053;-76
2022/06/21 06:21:29;;;;;;;0.70;0.55;;;;;;;18.05;77.13;101352.81;20845577;28;20095;-76
2022/06/21 06:31:46;;;;;;;2.28;0.70;;;;;;;18.07;77.24;101353.56;20765871;28;20801;-77
2022/06/21 06:41:58;;;;;;;3.67;0.95;;;;;;;18.06;77.71;101347.28;20834549;28;20137;-76
2022/06/21 06:52:11;;;;;;;2.88;0.90;;;;;;;18.08;77.60;101339.94;20775837;28;20094;-77
2022/06/21 07:02:19;;;;;;;2.53;0.68;;;;;;;18.10;77.49;101372.16;20796578;28;20053;-77
2022/06/21 07:12:24;;;;;;;2.63;0.85;;;;;;;18.09;77.28;101370.44;20776260;28;20049;-76
2022/06/21 07:22:36;;;;;;;3.25;0.60;;;;;;;18.16;77.11;101371.66;20827997;28;20045;-76
2022/06/21 07:32:41;;;;;;;1.83;0.80;;;;;;;18.27;76.40;101397.72;20808127;28;20057;-76
2022/06/21 07:43:00;;;;;;;2.35;0.80;;;;;;;18.38;76.24;101391.44;20843992;28;20497;-77
2022/06/21 07:53:13;;;;;;;2.00;0.90;;;;;;;18.36;75.85;101378.09;20850029;28;20063;-77
2022/06/21 08:13:36;;;;;;;0.98;0.60;;;;;;;18.40;75.26;101381.38;20762823;28;20073;-76
2022/06/21 08:23:49;;;;;;;2.30;0.85;;;;;;;18.46;75.04;101383.56;20763350;28;20063;-76
2022/06/21 08:34:00;;;;;;;2.00;0.88;;;;;;;18.53;74.68;101389.28;20747529;28;20498;-77
2022/06/21 08:44:21;;;;;;;1.20;0.60;;;;;;;18.58;74.30;101370.03;20878327;28;20498;-76
2022/06/21 08:54:37;;;;;;;1.67;0.77;;;;;;;18.62;73.90;101375.06;20844986;28;20099;-76
2022/06/21 09:05:03;;;;;;;1.55;0.88;;;;;;;18.41;73.69;101319.25;20797281;28;20059;-76
2022/06/21 09:15:25;;;;;;;2.10;0.77;;;;;;;18.59;73.51;101352.88;20789288;28;20656;-77
2022/06/21 09:25:51;;;;;;;0.52;0.50;;;;;;;18.58;73.85;101352.03;20868924;28;20051;-78
2022/06/21 09:36:38;;;;;;;1.80;0.50;;;;;;;18.56;73.58;101348.59;20786717;28;20513;-78
2022/06/21 09:46:55;;;;;;;0.65;0.60;;;;;;;18.57;73.19;101334.13;20761505;28;20132;-77
2022/06/21 09:57:03;;;;;;;1.25;0.70;;;;;;;18.58;73.15;101338.53;20777262;28;20044;-77
2022/06/21 10:07:23;;;;;;;2.15;0.80;;;;;;;18.57;72.88;101336.84;20875168;28;20409;-77
2022/06/21 10:17:25;;;;;;;1.15;0.65;;;;;;;18.56;72.87;101316.25;20844772;28;20052;-77
2022/06/21 10:27:45;;;;;;;1.58;0.50;;;;;;;18.55;72.51;101304.59;20792006;28;20041;-77
2022/06/21 10:38:02;;;;;;;1.27;0.57;;;;;;;18.55;72.38;101287.56;20788072;28;20060;-77
2022/06/21 10:48:28;;;;;;;0.68;0.55;;;;;;;18.55;72.55;101279.47;20788654;28;20499;-77
2022/06/21 10:58:46;;;;;;;1.85;0.70;;;;;;;18.51;72.20;101261.84;20766653;28;20430;-78
2022/06/21 11:09:13;;;;;;;0.63;0.50;;;;;;;18.54;72.23;101264.28;20768880;28;20065;-77
2022/06/21 11:19:23;;;;;;;1.40;0.43;;;;;;;18.53;71.98;101258.03;20793646;28;20560;-77
2022/06/21 11:29:40;;;;;;;1.35;0.50;;;;;;;18.54;71.82;101262.44;20804965;28;20057;-75
2022/06/21 11:39:47;;;;;;;1.50;0.50;;;;;;;18.55;71.52;101255.19;20768520;28;22317;-76
2022/06/21 11:49:59;;;;;;;2.00;0.63;;;;;;;18.52;71.62;101244.69;20835204;28;20053;-75
2022/06/21 12:00:16;;;;;;;1.30;0.60;;;;;;;18.55;71.49;101228.22;20838912;28;20049;-75
2022/06/21 12:10:28;;;;;;;2.17;0.63;;;;;;;18.52;71.37;101221.28;20771265;28;20421;-75
2022/06/21 12:20:37;;;;;;;1.73;0.70;;;;;;;18.56;71.27;101219.19;20835136;28;20057;-75
2022/06/21 12:30:39;;;;;;;1.23;0.70;;;;;;;18.57;71.08;101203.84;20779459;28;20068;-76
2022/06/21 12:40:48;;;;;;;1.75;0.40;;;;;;;18.33;70.93;101169.94;20806877;28;20537;-75
2022/06/21 12:51:12;;;;;;;0.57;0.45;;;;;;;18.55;70.79;101193.19;20757153;28;20060;-75
2022/06/21 13:01:30;;;;;;;0.50;0.43;;;;;;;18.55;71.12;101196.75;20809432;28;20052;-76
2022/06/21 13:11:38;;;;;;;0.57;0.50;;;;;;;18.56;70.99;101178.75;20842177;28;20061;-76
2022/06/21 13:21:58;;;;;;;0.60;0.40;;;;;;;18.56;70.87;101184.13;20754798;28;20045;-76
2022/06/21 13:32:04;;;;;;;0.85;0.40;;;;;;;18.56;71.02;101184.13;20774386;28;20073;-76
2022/06/21 13:42:38;;;;;;;0.77;0.40;;;;;;;18.55;71.06;101171.63;20781456;28;20057;-77
2022/06/21 13:52:53;;;;;;;0.73;0.50;;;;;;;18.55;71.07;101163.53;20822624;28;20055;-77
2022/06/21 14:03:27;;;;;;;1.42;0.50;;;;;;;18.54;70.98;101145.63;20849958;28;20053;-76
2022/06/21 14:13:41;;;;;;;0.63;0.40;;;;;;;18.60;71.06;101147.81;20820995;28;20414;-77
2022/06/21 14:23:54;;;;;;;0.98;0.45;;;;;;;18.59;70.63;101147.94;20780499;28;20457;-77
2022/06/21 14:34:03;;;;;;;1.00;0.50;;;;;;;18.31;70.71;101107.22;20794502;28;20502;-76
2022/06/21 14:44:14;;;;;;;0.32;0.32;;;;;;;18.58;70.84;101152.50;20762615;28;20103;-76
2022/06/21 14:54:48;;;;;;;1.52;0.65;;;;;;;18.60;70.70;101133.47;20815066;28;20076;-77
2022/06/21 15:04:57;;;;;;;1.80;0.50;;;;;;;18.61;70.63;101110.91;20817743;28;20123;-75
2022/06/21 15:15:03;;;;;;;1.08;0.40;;;;;;;18.59;70.86;101116.47;20836270;28;20053;-76
2022/06/21 15:25:19;;;;;;;;;;;;;;;18.58;70.92;101098.56;20772992;28;20053;-76
2022/06/21 15:35:31;;;;;;;3.17;0.75;;;;;;;18.50;71.36;101084.88;20779537;28;19927;-76
2022/06/21 15:45:45;;;;;;;2.15;1.10;;;;;;;18.49;71.17;101062.50;20773316;28;20057;-77
2022/06/21 15:55:55;;;;;;;1.77;0.90;;;;;;;18.58;71.49;101077.00;20811669;28;20111;-78
2022/06/21 16:06:09;;;;;;;2.38;1.20;;;;;;;18.58;71.68;101071.59;20857327;28;20053;-76
2022/06/21 16:16:12;;;;;;;2.10;1.10;;;;;;;18.58;71.75;101074.31;20797352;28;20049;-76
2022/06/21 16:26:18;;;;;;;1.95;1.00;;;;;;;18.04;71.89;100993.66;20829283;28;20466;-76
2022/06/21 16:36:51;;;;;;;1.83;0.95;;;;;;;18.53;72.30;101065.75;20878322;28;20044;-76
2022/06/21 16:46:57;;;;;;;3.72;1.38;;;;;;;18.35;72.49;101027.81;20880035;28;20052;-76
2022/06/21 16:57:01;;;;;;;1.20;0.82;;;;;;;18.48;72.28;101054.53;20879555;28;20044;-76
2022/06/21 17:07:14;;;;;;;1.98;1.00;;;;;;;18.46;72.59;101057.38;20896025;28;20409;-76
2022/06/21 17:17:26;;;;;;;1.17;0.82;;;;;;;18.46;72.58;101056.50;20880130;28;20053;-76
2022/06/21 17:27:49;;;;;;;1.65;1.15;;;;;;;18.46;72.44;101046.59;20894425;28;20480;-76
2022/06/21 17:38:00;;;;;;;1.70;1.17;;;;;;;18.40;72.57;101055.22;20893902;28;20060;-76
2022/06/21 17:48:07;;;;;;;1.48;1.10;;;;;;;18.25;73.31;101036.69;20892229;28;20057;-76
2022/06/21 17:58:17;;;;;;;1.75;1.13;;;;;;;18.46;73.50;101078.06;20892754;28;20098;-76
2022/06/21 18:08:30;;;;;;;1.10;1.00;;;;;;;18.44;73.77;101074.66;20892236;28;20049;-76
2022/06/21 18:18:37;;;;;;;2.10;1.17;;;;;;;18.44;74.00;101077.34;20891323;28;20049;-76
2022/06/21 18:29:34;;;;;;;2.20;1.30;;;;;;;18.43;74.24;101094.50;20891071;28;20049;-76
2022/06/21 18:39:57;;;;;;;1.70;1.27;;;;;;;18.41;74.51;101082.03;20881351;28;20484;-77
2022/06/21 18:50:22;;;;;;;2.22;1.40;;;;;;;18.41;74.97;101087.41;20829959;28;20469;-76
2022/06/21 19:00:51;;;;;;;2.70;1.35;;;;;;;18.42;75.20;101101.75;20887243;28;20056;-76
2022/06/21 19:10:58;;;;;;;2.50;1.60;;;;;;;17.27;75.42;100935.69;20883578;28;20051;-76
2022/06/21 19:21:06;;;;;;;2.22;1.70;;;;;;;18.39;75.96;101115.50;20886952;28;20051;-76
2022/06/21 19:31:33;;;;;;;3.08;1.80;;;;;;;18.39;76.09;101132.53;20883658;28;20045;-76
2022/06/21 19:41:46;;;;;;;2.58;1.73;;;;;;;18.38;76.19;101138.91;20801226;28;20513;-76
2022/06/21 19:51:47;;;;;;;2.33;1.52;;;;;;;18.37;76.60;101145.28;20800794;28;20051;-76
2022/06/21 20:02:11;;;;;;;2.88;1.40;;;;;;;18.38;76.58;101162.31;20800062;28;20103;-77
2022/06/21 20:12:22;;;;;;;1.95;1.73;;;;;;;18.36;76.81;101175.91;20800652;28;20041;-76
2022/06/21 20:22:38;;;;;;;2.47;1.45;;;;;;;18.33;76.77;101180.72;20781986;28;20049;-76
2022/06/21 20:32:43;;;;;;;2.13;1.40;;;;;;;18.36;76.91;101192.09;20861645;28;20077;-76
2022/06/21 20:53:11;;;;;;;3.90;1.88;;;;;;;18.34;76.97;101185.97;20877754;28;20581;-76
2022/06/21 21:03:19;;;;;;;2.00;1.42;;;;;;;18.25;77.03;101157.97;20897991;28;20056;-76
2022/06/21 21:13:38;;;;;;;2.92;1.70;;;;;;;18.24;76.93;101166.22;20895970;28;20061;-76
2022/06/21 21:23:43;;;;;;;2.15;1.60;;;;;;;18.33;77.49;101170.78;20895020;28;20398;-76
2022/06/21 21:33:51;;;;;;;2.43;1.70;;;;;;;18.33;77.09;101169.94;20891746;28;20049;-76
2022/06/21 21:43:55;;;;;;;2.40;1.50;;;;;;;18.30;77.05;101146.81;20895059;28;20118;-76
2022/06/21 21:54:07;;;;;;;3.70;1.95;;;;;;;18.31;77.14;101171.91;20812193;28;20543;-76
2022/06/21 22:04:28;;;;;;;2.28;1.38;;;;;;;18.29;76.97;101153.19;20823810;28;20045;-76
2022/06/21 22:14:29;;;;;;;2.40;1.60;;;;;;;18.28;76.96;101154.19;20808855;28;20049;-76
2022/06/21 22:24:37;;;;;;;2.00;1.40;;;;;;;18.26;76.86;101143.50;20810216;28;20072;-76
2022/06/21 22:34:39;;;;;;;2.72;1.70;;;;;;;18.27;77.01;101126.34;20814878;28;20057;-76
2022/06/21 22:44:44;;;;;;;2.05;1.67;;;;;;;18.18;77.12;101102.91;20805929;28;20042;-76
2022/06/21 22:54:47;;;;;;;;;;;;;;;18.25;77.02;101122.94;20789907;28;20045;-76
2022/06/21 23:04:54;;;;;;;1.85;1.60;;;;;;;18.22;76.89;101108.91;20788147;28;19921;-76
2022/06/21 23:14:56;;;;;;;1.48;1.38;;;;;;;18.24;76.94;101118.53;20886145;28;20110;-76
2022/06/21 23:24:58;;;;;;;2.03;1.60;;;;;;;18.24;76.96;101126.63;20887764;28;20509;-76
2022/06/21 23:35:14;;;;;;;2.17;1.75;;;;;;;18.24;76.80;101144.66;20859133;28;20409;-76
2022/06/21 23:45:19;;;;;;;2.00;1.48;;;;;;;18.23;76.69;101134.84;20883725;28;20063;-76
2022/06/21 23:55:23;;;;;;;2.17;1.77;;;;;;;18.22;76.55;101144.75;20885010;28;20087;-76
